createdAt,value
2024-03-16T00:00:30.503Z,14.87
2024-03-16T00:03:00.897Z,13.13
2024-03-16T00:05:29.503Z,10.73
2024-03-16T00:07:57.762Z,14.90
2024-03-16T00:10:26.645Z,18.47
2024-03-16T00:12:55.065Z,12.13
2024-03-16T00:15:23.539Z,16.10
2024-03-16T00:17:51.984Z,11.00
2024-03-16T00:20:20.698Z,12.40
2024-03-16T00:22:49.042Z,10.17
2024-03-16T00:25:16.478Z,14.87
2024-03-16T00:27:44.881Z,12.23
2024-03-16T00:30:13.568Z,13.67
2024-03-16T00:32:42.026Z,12.77
2024-03-16T00:35:11.214Z,14.80
2024-03-16T00:37:39.666Z,11.67
2024-03-16T00:40:09.542Z,13.43
2024-03-16T00:42:37.963Z,12.60
2024-03-16T00:45:06.809Z,14.10
2024-03-16T00:47:35.237Z,10.20
2024-03-16T00:50:03.862Z,13.10
2024-03-16T00:52:32.317Z,8.67
2024-03-16T00:55:00.665Z,10.90
2024-03-16T00:57:29.939Z,13.17
2024-03-16T00:59:58.565Z,14.20
2024-03-16T01:02:26.908Z,11.03
2024-03-16T01:04:55.280Z,14.93
2024-03-16T01:07:23.773Z,11.93
2024-03-16T01:09:52.267Z,13.00
2024-03-16T01:12:20.587Z,16.33
2024-03-16T01:14:49.002Z,11.80
2024-03-16T01:17:17.502Z,12.20
2024-03-16T01:19:46.500Z,12.13
2024-03-16T01:22:15.039Z,13.23
2024-03-16T01:24:43.424Z,13.70
2024-03-16T01:27:11.802Z,16.93
2024-03-16T01:29:40.161Z,18.13
2024-03-16T01:32:09.850Z,11.33
2024-03-16T01:34:38.248Z,16.97
2024-03-16T01:37:06.819Z,16.43
2024-03-16T01:39:35.369Z,13.77
2024-03-16T01:42:04.567Z,18.23
2024-03-16T01:44:32.945Z,17.23
2024-03-16T01:47:01.292Z,17.10
2024-03-16T01:49:30.173Z,20.43
2024-03-16T01:51:58.611Z,23.90
2024-03-16T01:54:27.094Z,22.43
2024-03-16T01:56:55.531Z,16.77
2024-03-16T01:59:24.091Z,21.67
2024-03-16T02:01:52.440Z,21.10
2024-03-16T02:04:20.837Z,17.70
2024-03-16T02:06:50.555Z,16.43
2024-03-16T02:09:20.286Z,17.77
2024-03-16T02:11:51.024Z,19.23
2024-03-16T02:14:19.479Z,13.03
2024-03-16T02:16:49.229Z,15.23
2024-03-16T02:19:17.654Z,13.90
2024-03-16T02:21:45.971Z,14.30
2024-03-16T02:24:14.468Z,11.33
2024-03-16T02:26:43.642Z,13.20
2024-03-16T02:29:12.887Z,12.40
2024-03-16T02:31:41.209Z,18.00
2024-03-16T02:34:09.704Z,12.30
2024-03-16T02:36:38.063Z,14.03
2024-03-16T02:39:06.617Z,10.73
2024-03-16T02:41:34.902Z,11.30
2024-03-16T02:44:03.651Z,12.03
2024-03-16T02:46:31.971Z,11.87
2024-03-16T02:49:00.489Z,9.80
2024-03-16T02:51:28.882Z,9.50
2024-03-16T02:53:57.907Z,12.30
2024-03-16T02:56:26.224Z,12.60
2024-03-16T02:58:54.545Z,15.47
2024-03-16T03:01:23.049Z,13.00
2024-03-16T03:03:51.523Z,13.83
2024-03-16T03:06:19.948Z,10.17
2024-03-16T03:08:49.375Z,12.87
2024-03-16T03:11:17.814Z,10.90
2024-03-16T03:13:48.584Z,13.80
2024-03-16T03:16:20.307Z,12.87
2024-03-16T03:18:48.794Z,13.67
2024-03-16T03:21:17.218Z,12.93
2024-03-16T03:23:45.558Z,15.70
2024-03-16T03:26:13.862Z,12.50
2024-03-16T03:28:41.238Z,14.23
2024-03-16T03:31:09.626Z,14.33
2024-03-16T03:33:38.132Z,14.03
2024-03-16T03:36:06.989Z,19.17
2024-03-16T03:38:34.373Z,15.57
2024-03-16T03:41:02.806Z,12.07
2024-03-16T03:43:31.926Z,14.00
2024-03-16T03:46:00.512Z,14.40
2024-03-16T03:48:42.353Z,20.13
2024-03-16T03:51:11.126Z,17.30
2024-03-16T03:53:39.410Z,14.57
2024-03-16T03:56:07.760Z,21.27
2024-03-16T03:58:36.054Z,18.80
2024-03-16T04:01:04.637Z,16.33
2024-03-16T04:03:33.102Z,14.63
2024-03-16T04:06:01.513Z,17.67
2024-03-16T04:08:29.769Z,15.23
2024-03-16T04:10:58.173Z,15.00
2024-03-16T04:13:26.528Z,11.73
2024-03-16T04:15:54.888Z,11.67
2024-03-16T04:18:23.217Z,8.17
2024-03-16T04:20:51.607Z,12.67
2024-03-16T04:23:19.875Z,9.60
2024-03-16T04:25:48.322Z,12.83
2024-03-16T04:28:17.783Z,7.17
2024-03-16T04:30:46.775Z,6.47
2024-03-16T04:33:16.885Z,10.97
2024-03-16T04:35:46.804Z,10.20
2024-03-16T04:38:15.238Z,9.50
2024-03-16T04:40:43.916Z,7.07
2024-03-16T04:43:12.361Z,7.10
2024-03-16T04:45:40.865Z,5.83
2024-03-16T04:48:09.401Z,6.90
2024-03-16T04:50:38.396Z,7.00
2024-03-16T04:53:06.692Z,6.73
2024-03-16T04:55:36.142Z,6.20
2024-03-16T04:58:05.900Z,5.47
2024-03-16T05:00:34.408Z,8.17
2024-03-16T05:03:02.685Z,5.50
2024-03-16T05:05:31.072Z,6.37
2024-03-16T05:07:59.441Z,8.53
2024-03-16T05:10:28.020Z,6.03
2024-03-16T05:12:56.438Z,6.70
2024-03-16T05:15:24.863Z,5.83
2024-03-16T05:17:53.370Z,8.47
2024-03-16T05:20:22.869Z,9.53
2024-03-16T05:22:51.220Z,7.73
2024-03-16T05:25:19.984Z,7.80
2024-03-16T05:27:48.415Z,4.77
2024-03-16T05:30:16.847Z,6.93
2024-03-16T05:32:45.195Z,7.13
2024-03-16T05:35:14.233Z,7.10
2024-03-16T05:37:42.523Z,4.53
2024-03-16T05:40:12.402Z,6.37
2024-03-16T05:42:40.996Z,8.27
2024-03-16T05:45:09.820Z,6.37
2024-03-16T05:47:38.216Z,9.17
2024-03-16T05:50:07.146Z,6.10
2024-03-16T05:52:36.621Z,8.17
2024-03-16T05:55:05.319Z,6.10
2024-03-16T05:57:33.882Z,7.50
2024-03-16T06:00:02.249Z,7.73
2024-03-16T06:02:40.659Z,8.80
2024-03-16T06:05:10.581Z,7.60
2024-03-16T06:07:38.981Z,12.10
2024-03-16T06:10:10.848Z,9.60
2024-03-16T06:12:39.353Z,8.07
2024-03-16T06:15:08.138Z,5.43
2024-03-16T06:17:36.561Z,5.57
2024-03-16T06:20:06.724Z,4.47
2024-03-16T06:22:35.442Z,9.03
2024-03-16T06:25:04.198Z,7.33
2024-03-16T06:27:32.550Z,5.27
2024-03-16T06:30:01.830Z,4.43
2024-03-16T06:32:35.578Z,4.73
2024-03-16T06:35:05.527Z,4.00
2024-03-16T06:37:33.866Z,4.90
2024-03-16T06:40:02.205Z,4.13
2024-03-16T06:42:30.631Z,5.57
2024-03-16T06:44:59.020Z,5.20
2024-03-16T06:47:28.607Z,4.20
2024-03-16T06:49:56.882Z,7.03
2024-03-16T06:52:26.566Z,3.70
2024-03-16T06:54:54.955Z,4.80
2024-03-16T06:57:23.277Z,4.50
2024-03-16T06:59:51.664Z,4.63
2024-03-16T07:02:20.026Z,4.90
2024-03-16T07:04:48.378Z,6.23
2024-03-16T07:07:16.812Z,2.90
2024-03-16T07:09:45.270Z,5.00
2024-03-16T07:12:13.621Z,4.00
2024-03-16T07:14:41.994Z,4.23
2024-03-16T07:17:10.465Z,3.87
2024-03-16T07:19:38.824Z,2.90
2024-03-16T07:22:07.235Z,3.33
2024-03-16T07:24:35.809Z,4.77
2024-03-16T07:27:04.192Z,3.27
2024-03-16T07:29:32.520Z,3.60
2024-03-16T07:32:00.855Z,3.87
2024-03-16T07:34:29.541Z,3.73
2024-03-16T07:37:00.222Z,7.03
2024-03-16T07:39:28.937Z,2.27
2024-03-16T07:41:57.304Z,3.30
2024-03-16T07:44:25.657Z,4.73
2024-03-16T07:46:53.987Z,3.17
2024-03-16T07:49:22.411Z,3.17
2024-03-16T07:51:50.829Z,4.30
2024-03-16T07:54:19.399Z,3.30
2024-03-16T07:56:49.730Z,1.53
2024-03-16T07:59:20.872Z,3.67
2024-03-16T08:01:49.332Z,3.93
2024-03-16T08:04:18.477Z,3.13
2024-03-16T08:06:49.941Z,3.97
2024-03-16T08:09:18.453Z,2.37
2024-03-16T08:11:47.032Z,3.33
2024-03-16T08:14:15.537Z,4.80
2024-03-16T08:16:43.846Z,5.17
2024-03-16T08:19:12.418Z,2.80
2024-03-16T08:21:40.989Z,5.03
2024-03-16T08:24:09.391Z,3.77
2024-03-16T08:26:37.712Z,2.77
2024-03-16T08:29:06.412Z,4.13
2024-03-16T08:31:35.175Z,3.70
2024-03-16T08:34:03.623Z,2.27
2024-03-16T08:36:32.788Z,4.80
2024-03-16T08:39:04.128Z,3.83
2024-03-16T08:41:32.572Z,5.17
2024-03-16T08:44:00.911Z,5.27
2024-03-16T08:46:30.311Z,2.03
2024-03-16T08:48:58.918Z,5.83
2024-03-16T08:51:27.492Z,4.10
2024-03-16T08:53:55.802Z,2.90
2024-03-16T08:56:27.215Z,5.10
2024-03-16T08:58:55.634Z,4.57
2024-03-16T09:01:24.016Z,3.67
2024-03-16T09:03:52.507Z,4.57
2024-03-16T09:06:20.851Z,4.20
2024-03-16T09:08:49.224Z,3.67
2024-03-16T09:11:17.978Z,5.10
2024-03-16T09:13:47.492Z,3.63
2024-03-16T09:16:16.005Z,4.80
2024-03-16T09:18:44.440Z,2.13
2024-03-16T09:21:12.767Z,6.97
2024-03-16T09:23:41.167Z,4.77
2024-03-16T09:26:09.665Z,3.27
2024-03-16T09:28:38.094Z,3.40
2024-03-16T09:31:11.478Z,2.93
2024-03-16T09:33:39.962Z,4.67
2024-03-16T09:36:08.426Z,3.87
2024-03-16T09:38:37.392Z,2.03
2024-03-16T09:41:05.878Z,6.93
